createdAt,value
2019-05-23T00:01:30.989Z,12.05
2019-05-23T00:04:31.929Z,8.95
2019-05-23T00:07:27.430Z,11.10
2019-05-23T00:10:26.742Z,9.75
2019-05-23T00:13:04.952Z,11.57
2019-05-23T00:15:43.030Z,9.73
2019-05-23T00:18:21.299Z,8.88
2019-05-23T00:20:55.309Z,9.93
2019-05-23T00:23:29.518Z,13.83
2019-05-23T00:26:03.877Z,12.53
2019-05-23T00:28:38.104Z,9.60
2019-05-23T00:31:34.480Z,9.55
2019-05-23T00:34:11.746Z,11.18
2019-05-23T00:36:46.937Z,9.00
2019-05-23T00:39:21.113Z,9.15
2019-05-23T00:41:57.366Z,9.85
2019-05-23T00:44:32.634Z,9.98
2019-05-23T00:47:08.778Z,11.40
2019-05-23T00:49:44.443Z,11.90
2019-05-23T00:52:18.688Z,10.70
2019-05-23T00:54:53.514Z,10.68
2019-05-23T00:57:29.200Z,10.55
2019-05-23T01:00:03.687Z,12.78
2019-05-23T01:02:39.020Z,10.15
2019-05-23T01:05:15.174Z,9.98
2019-05-23T01:07:51.170Z,12.58
2019-05-23T01:10:27.663Z,13.08
2019-05-23T01:13:03.441Z,11.85
2019-05-23T01:15:38.784Z,11.25
2019-05-23T01:18:13.710Z,13.65
2019-05-23T01:21:05.278Z,13.28
2019-05-23T01:23:44.049Z,12.23
2019-05-23T01:26:19.545Z,13.10
2019-05-23T01:28:54.023Z,12.95
2019-05-23T01:31:33.950Z,13.45
2019-05-23T01:34:09.954Z,14.18
2019-05-23T01:36:44.489Z,12.28
2019-05-23T01:39:20.393Z,13.30
2019-05-23T01:41:54.733Z,13.32
2019-05-23T01:44:29.899Z,13.45
2019-05-23T01:47:04.683Z,12.35
2019-05-23T01:49:40.875Z,12.28
2019-05-23T01:52:17.388Z,13.88
2019-05-23T01:54:51.862Z,14.47
2019-05-23T01:57:27.080Z,12.70
2019-05-23T02:00:10.323Z,13.90
2019-05-23T02:02:38.993Z,14.95
2019-05-23T02:05:14.693Z,15.10
2019-05-23T02:07:49.367Z,16.05
2019-05-23T02:10:24.005Z,17.57
2019-05-23T02:12:58.630Z,15.68
2019-05-23T02:15:33.802Z,14.68
2019-05-23T02:18:08.539Z,15.53
2019-05-23T02:20:43.361Z,16.42
2019-05-23T02:23:18.870Z,14.95
2019-05-23T02:25:54.503Z,17.50
2019-05-23T02:28:30.901Z,17.48
2019-05-23T02:31:06.199Z,15.43
2019-05-23T02:33:41.065Z,16.97
2019-05-23T02:36:15.805Z,16.48
2019-05-23T02:39:09.726Z,15.60
2019-05-23T02:42:01.951Z,15.15
2019-05-23T02:44:38.231Z,14.68
2019-05-23T02:47:26.975Z,16.52
2019-05-23T02:50:03.240Z,14.87
2019-05-23T02:52:57.251Z,16.73
2019-05-23T02:55:39.053Z,14.90
2019-05-23T02:58:32.365Z,17.10
2019-05-23T03:01:37.825Z,15.10
2019-05-23T03:04:19.407Z,15.55
2019-05-23T03:06:54.942Z,16.37
2019-05-23T03:09:32.207Z,15.72
2019-05-23T03:12:09.818Z,15.88
2019-05-23T03:14:46.514Z,15.60
2019-05-23T03:17:25.279Z,16.20
2019-05-23T03:20:06.298Z,15.78
2019-05-23T03:22:46.229Z,19.70
2019-05-23T03:25:57.944Z,20.02
2019-05-23T03:28:34.802Z,20.60
2019-05-23T03:31:28.566Z,18.20
2019-05-23T03:33:52.716Z,16.52
2019-05-23T03:36:29.967Z,15.00
2019-05-23T03:39:19.174Z,16.97
2019-05-23T03:42:08.557Z,21.68
2019-05-23T03:45:05.344Z,18.30
2019-05-23T03:47:46.516Z,21.73
2019-05-23T03:50:31.607Z,20.62
2019-05-23T03:53:12.046Z,29.52
2019-05-23T03:55:50.860Z,20.77
2019-05-23T03:58:33.470Z,19.52
2019-05-23T04:01:21.406Z,15.43
2019-05-23T04:04:11.546Z,21.70
2019-05-23T04:06:56.150Z,21.35
2019-05-23T04:09:34.540Z,20.77
2019-05-23T04:12:10.432Z,23.20
2019-05-23T04:14:45.006Z,22.20
2019-05-23T04:17:19.000Z,20.95
2019-05-23T04:19:52.887Z,22.87
2019-05-23T04:22:28.184Z,25.23
2019-05-23T04:25:02.821Z,20.25
2019-05-23T04:27:43.843Z,22.80
2019-05-23T04:30:19.930Z,21.40
2019-05-23T04:32:58.979Z,22.48
2019-05-23T04:35:40.602Z,28.45
2019-05-23T04:38:36.952Z,28.15
2019-05-23T04:41:19.844Z,30.77
2019-05-23T04:43:57.127Z,27.05
2019-05-23T04:46:47.058Z,35.48
2019-05-23T04:49:24.282Z,38.90
2019-05-23T04:52:06.489Z,42.20
2019-05-23T04:54:44.197Z,33.70
2019-05-23T04:57:23.224Z,36.45
2019-05-23T05:00:14.233Z,45.70
2019-05-23T05:03:09.719Z,33.35
2019-05-23T05:05:52.984Z,169.85
2019-05-23T05:08:43.532Z,86.57
2019-05-23T05:11:24.914Z,89.27
2019-05-23T05:14:09.481Z,70.70
2019-05-23T05:16:59.193Z,59.50
2019-05-23T05:19:49.991Z,73.40
2019-05-23T05:22:25.517Z,62.93
2019-05-23T05:25:05.125Z,62.13
2019-05-23T05:28:03.717Z,57.50
2019-05-23T05:30:40.018Z,49.00
2019-05-23T05:33:17.481Z,42.35
2019-05-23T05:35:59.470Z,46.65
2019-05-23T05:38:36.325Z,40.23
2019-05-23T05:41:12.748Z,45.83
2019-05-23T05:43:47.766Z,35.35
2019-05-23T05:46:23.331Z,40.52
2019-05-23T05:49:00.418Z,41.90
2019-05-23T05:51:36.169Z,40.23
2019-05-23T05:54:13.755Z,32.70
2019-05-23T05:57:01.275Z,30.62
2019-05-23T05:59:41.283Z,25.45
2019-05-23T06:02:21.214Z,34.40
2019-05-23T06:05:00.610Z,45.17
2019-05-23T06:07:44.571Z,32.17
2019-05-23T06:10:22.458Z,30.68
2019-05-23T06:13:00.667Z,34.60
2019-05-23T06:15:37.434Z,32.58
2019-05-23T06:18:17.320Z,27.87
2019-05-23T06:20:54.595Z,30.82
2019-05-23T06:23:37.234Z,25.15
2019-05-23T06:26:15.598Z,33.90
2019-05-23T06:28:57.319Z,24.23
2019-05-23T06:31:37.568Z,24.65
2019-05-23T06:34:15.573Z,27.48
2019-05-23T06:36:54.594Z,27.25
2019-05-23T06:39:33.310Z,27.62
2019-05-23T06:42:22.993Z,23.27
2019-05-23T06:45:00.627Z,27.85
2019-05-23T06:47:40.890Z,27.87
2019-05-23T06:50:21.693Z,26.07
2019-05-23T06:53:02.889Z,28.30
2019-05-23T06:55:43.004Z,34.70
2019-05-23T06:58:21.025Z,28.00
2019-05-23T07:00:59.665Z,28.25
2019-05-23T07:03:50.415Z,29.67
2019-05-23T07:06:28.780Z,31.93
2019-05-23T07:09:11.353Z,22.95
2019-05-23T07:14:25.933Z,32.85
2019-05-23T07:17:03.175Z,36.08
2019-05-23T07:19:41.040Z,43.83
2019-05-23T07:22:19.651Z,50.60
2019-05-23T07:24:58.823Z,40.92
2019-05-23T07:27:38.968Z,40.67
2019-05-23T07:30:21.167Z,39.73
2019-05-23T07:32:59.816Z,45.33
2019-05-23T07:35:38.438Z,35.52
2019-05-23T07:38:22.452Z,39.15
2019-05-23T07:43:37.994Z,36.13
2019-05-23T07:46:17.198Z,32.35
2019-05-23T07:48:55.211Z,34.78
2019-05-23T07:51:39.033Z,33.95
2019-05-23T07:54:28.396Z,33.90
2019-05-23T07:57:09.791Z,34.05
2019-05-23T07:59:47.614Z,30.97
2019-05-23T08:02:36.477Z,37.30
2019-05-23T08:05:18.133Z,32.23
2019-05-23T08:07:59.567Z,34.60
2019-05-23T08:10:38.284Z,29.95
2019-05-23T08:13:16.028Z,26.52
2019-05-23T08:15:56.856Z,26.12
2019-05-23T08:18:34.454Z,33.53
2019-05-23T08:21:14.128Z,27.65
2019-05-23T08:23:51.973Z,29.65
2019-05-23T08:26:33.419Z,28.12
2019-05-23T08:31:50.051Z,25.12
2019-05-23T08:34:40.527Z,35.60
2019-05-23T08:37:16.465Z,36.60
2019-05-23T08:39:57.396Z,33.63
2019-05-23T08:42:39.794Z,29.75
2019-05-23T08:47:53.485Z,44.08
2019-05-23T08:50:32.763Z,42.03
2019-05-23T08:53:11.162Z,42.03
2019-05-23T08:55:56.634Z,34.05
2019-05-23T08:58:34.110Z,30.32
2019-05-23T09:01:11.495Z,34.10
2019-05-23T09:03:53.467Z,31.62
2019-05-23T09:06:32.216Z,24.67
2019-05-23T09:09:28.428Z,29.80
2019-05-23T09:14:29.506Z,35.43
2019-05-23T09:17:09.041Z,30.90
2019-05-23T09:19:47.383Z,24.87
2019-05-23T09:22:25.353Z,23.75
2019-05-23T09:25:02.044Z,17.98
2019-05-23T09:27:44.025Z,26.05
2019-05-23T09:30:23.488Z,16.48
2019-05-23T09:32:59.740Z,23.25
2019-05-23T09:35:38.337Z,29.82
2019-05-23T09:38:15.282Z,23.85
2019-05-23T09:40:52.205Z,19.73
2019-05-23T09:43:29.699Z,20.15
2019-05-23T09:46:07.678Z,21.52
2019-05-23T09:48:45.600Z,19.90
2019-05-23T09:51:28.653Z,30.23
2019-05-23T09:54:06.182Z,21.97
2019-05-23T09:56:44.632Z,19.73
2019-05-23T09:59:22.974Z,19.73
2019-05-23T10:02:02.403Z,16.17
2019-05-23T10:04:40.023Z,18.12
2019-05-23T10:07:17.678Z,16.97
2019-05-23T10:09:54.805Z,15.83
2019-05-23T10:12:33.012Z,18.45
2019-05-23T10:15:13.556Z,16.37
2019-05-23T10:17:51.165Z,16.50
2019-05-23T10:20:30.370Z,16.52
2019-05-23T10:23:07.774Z,16.27
2019-05-23T10:25:51.054Z,17.57
2019-05-23T10:28:27.410Z,14.53
2019-05-23T10:31:06.503Z,19.32
2019-05-23T10:33:45.067Z,15.68
2019-05-23T10:36:22.414Z,19.73
2019-05-23T10:38:58.981Z,16.52
2019-05-23T10:41:35.454Z,16.85
2019-05-23T10:44:15.759Z,17.98
2019-05-23T10:46:54.500Z,12.60
2019-05-23T10:49:31.782Z,15.45
2019-05-23T10:52:11.169Z,16.02
2019-05-23T10:54:48.888Z,13.15
2019-05-23T10:57:27.122Z,14.87
2019-05-23T11:00:04.481Z,15.78
2019-05-23T11:02:43.445Z,17.65
2019-05-23T11:05:20.955Z,19.80
2019-05-23T11:07:59.843Z,16.82
2019-05-23T11:10:36.595Z,17.52
2019-05-23T11:13:11.680Z,15.10
2019-05-23T11:15:47.067Z,14.50
2019-05-23T11:18:22.871Z,15.78
2019-05-23T11:20:57.949Z,16.42
2019-05-23T11:23:37.431Z,15.32
2019-05-23T11:26:12.519Z,17.95
2019-05-23T11:28:47.630Z,18.87
2019-05-23T11:31:23.509Z,19.12
2019-05-23T11:33:59.197Z,18.65
2019-05-23T11:36:36.681Z,16.02
2019-05-23T11:39:13.071Z,16.97
2019-05-23T11:41:48.588Z,17.57
2019-05-23T11:44:23.214Z,15.83
2019-05-23T11:46:58.580Z,19.75
2019-05-23T11:49:34.529Z,14.53
2019-05-23T11:52:09.039Z,16.37
2019-05-23T11:54:46.681Z,15.80
2019-05-23T11:57:21.073Z,13.18
2019-05-23T11:59:56.220Z,16.42
2019-05-23T12:02:39.768Z,12.98
2019-05-23T12:05:26.958Z,12.00
2019-05-23T12:08:01.300Z,12.07
2019-05-23T12:10:35.834Z,15.63
2019-05-23T12:13:10.728Z,15.75
2019-05-23T12:15:46.021Z,17.02
2019-05-23T12:18:21.455Z,13.18
2019-05-23T12:20:59.642Z,12.15
2019-05-23T12:23:33.366Z,16.40
2019-05-23T12:26:07.864Z,22.37
2019-05-23T12:28:42.316Z,12.30
2019-05-23T12:31:16.445Z,14.55
2019-05-23T12:33:50.866Z,15.68
2019-05-23T12:36:25.207Z,16.40
2019-05-23T12:38:59.166Z,17.82
2019-05-23T12:41:33.993Z,14.75
2019-05-23T12:44:08.629Z,14.90
2019-05-23T12:46:42.876Z,16.52
2019-05-23T12:49:24.019Z,18.95
2019-05-23T12:51:59.150Z,13.40
2019-05-23T12:54:33.902Z,12.18
2019-05-23T12:57:09.790Z,15.38
2019-05-23T12:59:43.808Z,15.95
2019-05-23T13:02:23.270Z,14.38
2019-05-23T13:04:57.844Z,12.53
2019-05-23T13:07:36.344Z,15.75
2019-05-23T13:10:09.761Z,15.55
2019-05-23T13:12:44.080Z,19.65
2019-05-23T13:15:18.453Z,14.90
2019-05-23T13:17:52.730Z,16.60
2019-05-23T13:20:26.745Z,10.93
2019-05-23T13:23:00.869Z,17.05
2019-05-23T13:25:35.019Z,17.32
2019-05-23T13:28:09.168Z,18.30
2019-05-23T13:30:43.168Z,18.23
2019-05-23T13:33:18.030Z,18.45
2019-05-23T13:35:51.877Z,12.58
2019-05-23T13:38:25.805Z,12.40
2019-05-23T13:40:59.611Z,13.00
2019-05-23T13:43:33.966Z,12.88
2019-05-23T13:46:08.177Z,14.45
2019-05-23T13:48:42.208Z,10.75
2019-05-23T13:51:16.339Z,14.28
2019-05-23T13:53:50.088Z,14.07
2019-05-23T13:56:24.323Z,13.68
2019-05-23T13:58:58.925Z,14.87
2019-05-23T14:01:33.321Z,19.12
2019-05-23T14:04:07.747Z,18.35
2019-05-23T14:06:42.616Z,13.85
2019-05-23T14:09:17.217Z,13.62
2019-05-23T14:12:19.647Z,13.65
2019-05-23T14:14:27.639Z,16.32
2019-05-23T14:17:35.645Z,30.40
2019-05-23T14:20:10.929Z,48.83
2019-05-23T14:22:50.220Z,52.67
2019-05-23T14:25:25.055Z,45.52
2019-05-23T14:28:06.373Z,43.13
2019-05-23T14:31:02.564Z,43.95
2019-05-23T14:33:47.925Z,50.23
2019-05-23T14:36:32.069Z,43.78
2019-05-23T14:39:05.910Z,52.27
2019-05-23T14:41:50.245Z,49.50
2019-05-23T14:44:24.662Z,34.58
2019-05-23T14:47:21.249Z,35.85
2019-05-23T14:50:09.751Z,44.93
2019-05-23T14:52:44.657Z,36.95
2019-05-23T14:55:19.152Z,52.73
2019-05-23T14:57:53.592Z,45.23
2019-05-23T15:00:28.651Z,34.40
2019-05-23T15:03:02.672Z,39.25
2019-05-23T15:05:37.358Z,34.13
2019-05-23T15:08:11.533Z,32.33
2019-05-23T15:10:47.082Z,25.77
2019-05-23T15:13:21.349Z,28.92
2019-05-23T15:15:55.703Z,34.20
2019-05-23T15:18:29.822Z,28.25
2019-05-23T15:21:03.848Z,30.40
2019-05-23T15:23:38.098Z,26.77
2019-05-23T15:26:22.455Z,29.98
2019-05-23T15:28:47.625Z,27.37
2019-05-23T15:31:21.987Z,23.80
2019-05-23T15:33:56.300Z,27.67
2019-05-23T15:36:30.518Z,24.55
2019-05-23T15:39:09.341Z,19.92
2019-05-23T15:41:40.607Z,25.23
2019-05-23T15:44:25.453Z,22.87
2019-05-23T15:46:51.113Z,23.02
2019-05-23T15:49:25.547Z,21.07
2019-05-23T15:52:10.780Z,19.50
2019-05-23T15:54:55.161Z,22.07
2019-05-23T15:57:40.947Z,23.73
2019-05-23T16:00:32.386Z,19.25
2019-05-23T16:03:14.234Z,20.12
2019-05-23T16:05:48.532Z,17.67
2019-05-23T16:08:23.157Z,18.23
2019-05-23T16:10:57.597Z,17.92
2019-05-23T16:13:31.981Z,17.45
2019-05-23T16:16:06.127Z,22.98
2019-05-23T16:18:40.659Z,17.77
2019-05-23T16:21:15.566Z,20.88
2019-05-23T16:23:49.934Z,20.80
2019-05-23T16:26:23.931Z,27.62
2019-05-23T16:28:58.238Z,18.45
2019-05-23T16:31:32.117Z,22.60
2019-05-23T16:34:06.752Z,16.70
2019-05-23T16:36:40.719Z,24.15
2019-05-23T16:39:15.203Z,18.98
2019-05-23T16:41:49.149Z,28.47
2019-05-23T16:44:23.385Z,23.87
2019-05-23T16:46:57.654Z,21.15
2019-05-23T16:49:31.901Z,19.10
2019-05-23T16:52:06.186Z,18.62
2019-05-23T16:54:44.480Z,19.15
2019-05-23T16:57:37.328Z,22.65
2019-05-23T17:00:43.744Z,23.62
2019-05-23T17:03:24.975Z,20.72
2019-05-23T17:06:14.127Z,22.25
2019-05-23T17:09:13.648Z,24.65
2019-05-23T17:12:02.860Z,23.62
2019-05-23T17:14:45.292Z,29.60
2019-05-23T17:20:40.139Z,29.63
2019-05-23T17:23:33.344Z,26.02
2019-05-23T17:26:29.336Z,29.12
2019-05-23T17:29:05.289Z,30.12
2019-05-23T17:31:40.569Z,28.65
2019-05-23T17:34:15.096Z,26.93
2019-05-23T17:36:49.213Z,24.23
2019-05-23T17:39:25.317Z,22.82
2019-05-23T17:41:59.430Z,23.55
2019-05-23T17:44:33.676Z,22.80
2019-05-23T17:47:08.291Z,20.02
2019-05-23T17:49:42.596Z,25.17
2019-05-23T17:52:17.149Z,19.87
2019-05-23T17:54:51.811Z,19.20
2019-05-23T17:57:26.311Z,25.92
2019-05-23T18:00:00.546Z,17.75
2019-05-23T18:02:34.892Z,29.63
2019-05-23T18:05:09.784Z,20.92
2019-05-23T18:07:45.267Z,20.90
2019-05-23T18:10:19.914Z,21.25
2019-05-23T18:12:54.279Z,19.12
2019-05-23T18:15:28.714Z,23.25
2019-05-23T18:18:03.607Z,21.05
2019-05-23T18:20:39.720Z,22.22
2019-05-23T18:23:14.415Z,20.02
2019-05-23T18:25:49.138Z,20.45
2019-05-23T18:28:23.662Z,20.27
2019-05-23T18:31:06.005Z,19.65
2019-05-23T18:33:37.705Z,19.87
2019-05-23T18:36:12.123Z,23.32
2019-05-23T18:38:46.325Z,19.30
2019-05-23T18:41:20.365Z,18.70
2019-05-23T18:43:55.352Z,16.67
2019-05-23T18:46:37.735Z,18.20
2019-05-23T18:49:11.987Z,19.23
2019-05-23T18:51:46.148Z,18.65
2019-05-23T18:54:20.672Z,23.52
2019-05-23T18:56:54.799Z,22.48
2019-05-23T18:59:29.744Z,17.60
2019-05-23T19:02:03.776Z,17.85
2019-05-23T19:04:38.198Z,20.85
2019-05-23T19:07:12.677Z,17.00
2019-05-23T19:09:46.991Z,19.57
2019-05-23T19:12:21.064Z,22.13
2019-05-23T19:14:55.190Z,17.73
2019-05-23T19:17:29.608Z,19.55
2019-05-23T19:20:04.648Z,23.02
2019-05-23T19:22:39.927Z,16.35
2019-05-23T19:25:14.278Z,17.87
2019-05-23T19:27:48.843Z,18.05
2019-05-23T19:30:23.083Z,19.45
2019-05-23T19:32:57.815Z,19.12
2019-05-23T19:35:32.024Z,18.73
2019-05-23T19:38:06.781Z,18.32
2019-05-23T19:40:41.323Z,18.82
2019-05-23T19:43:16.535Z,17.23
2019-05-23T19:45:50.546Z,16.97
2019-05-23T19:48:24.839Z,18.80
2019-05-23T19:50:58.940Z,18.87
2019-05-23T19:53:33.382Z,19.05
2019-05-23T19:56:09.226Z,16.48
2019-05-23T19:58:43.620Z,17.98
2019-05-23T20:01:19.200Z,18.40
2019-05-23T20:03:53.293Z,17.82
2019-05-23T20:06:27.574Z,16.77
2019-05-23T20:09:02.403Z,15.90
2019-05-23T20:11:53.358Z,16.95
2019-05-23T20:14:13.853Z,17.00
2019-05-23T20:16:47.650Z,16.17
2019-05-23T20:19:21.750Z,15.05
2019-05-23T20:21:56.689Z,15.28
2019-05-23T20:24:31.187Z,16.42
2019-05-23T20:27:05.114Z,16.52
2019-05-23T20:29:39.310Z,15.25
2019-05-23T20:32:13.299Z,15.48
2019-05-23T20:34:47.389Z,16.25
2019-05-23T20:37:23.470Z,15.28
2019-05-23T20:39:57.599Z,17.65
2019-05-23T20:42:31.700Z,16.70
2019-05-23T20:45:05.903Z,16.65
2019-05-23T20:47:39.907Z,15.98
2019-05-23T20:50:16.167Z,18.05
2019-05-23T20:52:50.167Z,17.67
2019-05-23T20:55:25.010Z,16.10
2019-05-23T20:57:59.440Z,15.85
2019-05-23T21:00:55.898Z,15.38
2019-05-23T21:03:30.775Z,14.98
2019-05-23T21:06:05.411Z,17.07
2019-05-23T21:08:40.117Z,16.45
2019-05-23T21:11:14.442Z,15.83
2019-05-23T21:13:48.674Z,18.65
2019-05-23T21:16:22.967Z,15.40
2019-05-23T21:18:57.072Z,18.60
2019-05-23T21:21:31.280Z,17.20
2019-05-23T21:24:05.414Z,17.73
2019-05-23T21:26:40.025Z,17.00
2019-05-23T21:29:14.452Z,15.80
2019-05-23T21:31:48.998Z,16.95
2019-05-23T21:34:23.119Z,18.40
2019-05-23T21:36:57.370Z,17.17
2019-05-23T21:39:31.616Z,18.55
2019-05-23T21:42:05.960Z,18.10
2019-05-23T21:44:40.160Z,16.27
2019-05-23T21:47:14.439Z,16.97
2019-05-23T21:49:48.344Z,18.80
2019-05-23T21:52:22.166Z,18.00
2019-05-23T21:54:56.172Z,18.32
2019-05-23T21:57:30.207Z,19.73
2019-05-23T22:00:04.331Z,16.37
2019-05-23T22:02:40.028Z,16.77
2019-05-23T22:05:17.076Z,17.52
2019-05-23T22:07:51.323Z,16.40
2019-05-23T22:10:25.466Z,16.55
2019-05-23T22:13:04.541Z,17.40
2019-05-23T22:15:40.163Z,17.60
2019-05-23T22:18:14.206Z,19.95
2019-05-23T22:20:48.376Z,17.80
2019-05-23T22:23:22.642Z,16.73
2019-05-23T22:25:56.830Z,17.75
2019-05-23T22:28:31.137Z,17.48
2019-05-23T22:31:05.344Z,16.70
2019-05-23T22:33:42.421Z,15.98
2019-05-23T22:36:17.861Z,17.25
2019-05-23T22:38:51.953Z,18.42
2019-05-23T22:41:25.992Z,18.85
2019-05-23T22:44:00.139Z,18.02
2019-05-23T22:46:34.740Z,18.80
2019-05-23T22:49:08.853Z,18.07
2019-05-23T22:51:43.163Z,17.25
2019-05-23T22:54:17.467Z,20.17
2019-05-23T22:56:51.701Z,18.32
2019-05-23T22:59:27.076Z,17.60
2019-05-23T23:02:01.127Z,16.40
2019-05-23T23:04:35.223Z,17.00
2019-05-23T23:07:09.377Z,16.57
2019-05-23T23:09:43.816Z,16.17
2019-05-23T23:12:18.125Z,16.93
2019-05-23T23:14:53.251Z,18.37
2019-05-23T23:17:27.468Z,17.05
2019-05-23T23:20:02.711Z,17.87
2019-05-23T23:22:37.035Z,20.37
2019-05-23T23:25:11.122Z,20.77
2019-05-23T23:27:48.501Z,16.32
2019-05-23T23:30:27.235Z,16.75
2019-05-23T23:33:01.280Z,19.48
2019-05-23T23:35:35.549Z,18.25
2019-05-23T23:38:10.181Z,17.45
2019-05-23T23:40:44.065Z,18.07
2019-05-23T23:43:18.412Z,18.25
2019-05-23T23:46:09.693Z,16.32
2019-05-23T23:49:01.149Z,20.48
2019-05-23T23:51:52.580Z,17.48
2019-05-23T23:54:44.393Z,16.10
2019-05-23T23:57:35.398Z,16.75
